Time;durP1;ratioP1;P1;durP2;ratioP2;P2;SDS_P1;SDS_P2;PMS_P1;PMS_P2;Temp;Humidity;BMP_temperature;BMP_pressure;BME280_temperature;BME280_humidity;BME280_pressure;Samples;Min_cycle;Max_cycle;Signal;HPM_P1;HPM_P2
2023/10/17 00:03:32;;;;;;;2.30;1.05;;;2.80;99.90;;;;;;25337995;23;20005;-58
2023/10/17 00:13:44;;;;;;;4.55;1.38;;;2.60;99.90;;;;;;25337492;23;20442;-50
2023/10/17 00:23:47;;;;;;;3.10;1.48;;;2.40;99.90;;;;;;25377949;23;20010;-50
2023/10/17 00:33:57;;;;;;;4.82;1.55;;;2.40;99.90;;;;;;25337367;23;20077;-51
2023/10/17 00:43:59;;;;;;;3.88;1.90;;;2.40;99.90;;;;;;25309658;23;20010;-49
2023/10/17 00:54:01;;;;;;;3.47;1.90;;;2.10;99.90;;;;;;25336482;23;20022;-48
2023/10/17 01:04:04;;;;;;;3.08;2.10;;;2.20;99.90;;;;;;25310768;23;20054;-51
2023/10/17 01:14:06;;;;;;;3.72;1.80;;;2.20;99.90;;;;;;25336176;23;20445;-50
2023/10/17 01:24:09;;;;;;;2.97;1.65;;;2.20;99.90;;;;;;25310459;23;20001;-49
2023/10/17 01:34:11;;;;;;;5.18;2.00;;;2.60;99.90;;;;;;25335964;23;20021;-47
2023/10/17 01:44:14;;;;;;;3.30;1.98;;;2.50;99.90;;;;;;25316847;23;20013;-50
2023/10/17 01:54:17;;;;;;;3.58;2.42;;;2.30;99.90;;;;;;25342178;23;20081;-49
2023/10/17 02:04:19;;;;;;;5.50;2.67;;;2.20;99.90;;;;;;25342146;23;20006;-49
2023/10/17 02:14:22;;;;;;;5.38;2.40;;;2.20;99.90;;;;;;25341818;23;20016;-51
2023/10/17 02:24:25;;;;;;;5.57;2.45;;;2.00;99.90;;;;;;25341631;23;20009;-47
2023/10/17 02:34:29;;;;;;;7.38;3.15;;;2.00;99.90;;;;;;25315097;23;20155;-49
2023/10/17 02:44:31;;;;;;;3.80;2.22;;;1.80;99.90;;;;;;25314244;23;20520;-51
2023/10/17 02:54:57;;;;;;;5.15;2.70;;;2.00;99.90;;;;;;25340304;23;20067;-48
2023/10/17 03:05:05;;;;;;;5.00;2.15;;;1.90;99.90;;;;;;25313122;23;20077;-48
2023/10/17 03:25:19;;;;;;;4.32;2.28;;;2.10;99.90;;;;;;25353715;23;20033;-47
2023/10/17 03:35:22;;;;;;;3.30;2.20;;;2.00;99.90;;;;;;25339515;23;20354;-49
2023/10/17 03:45:27;;;;;;;4.88;2.35;;;1.80;99.90;;;;;;25337043;23;20329;-50
2023/10/17 03:55:29;;;;;;;5.47;2.28;;;1.80;99.90;;;;;;25336455;23;20018;-51
2023/10/17 04:05:33;;;;;;;7.35;2.55;;;1.60;99.90;;;;;;25336451;23;20013;-49
2023/10/17 04:15:35;;;;;;;5.90;2.20;;;1.70;99.90;;;;;;25336566;23;20056;-48
2023/10/17 04:25:38;;;;;;;8.35;2.55;;;1.90;99.90;;;;;;25337489;23;20010;-49
2023/10/17 04:35:46;;;;;;;3.65;2.30;;;1.60;99.90;;;;;;25336137;23;20010;-50
2023/10/17 04:45:55;;;;;;;4.63;2.58;;;1.60;99.90;;;;;;25376332;23;20064;-46
2023/10/17 04:56:11;;;;;;;4.38;2.97;;;1.70;99.90;;;;;;25332656;23;20449;-52
2023/10/17 06:18:26;;;;;;;4.27;2.07;;;1.80;99.90;;;;;;25381706;23;20005;-52
2023/10/17 06:28:34;;;;;;;4.88;3.17;;;1.90;99.90;;;;;;25380503;23;20006;-52
2023/10/17 06:38:46;;;;;;;6.93;3.08;;;2.00;99.90;;;;;;25380467;23;20010;-50
2023/10/17 06:48:56;;;;;;;5.72;2.60;;;2.20;99.90;;;;;;25380467;23;20030;-53
2023/10/17 06:59:04;;;;;;;4.15;2.55;;;2.40;99.90;;;;;;25342500;23;20454;-50
2023/10/17 07:09:16;;;;;;;3.33;1.92;;;2.80;99.90;;;;;;25379878;23;20488;-49
2023/10/17 07:29:26;;;;;;;3.38;1.75;;;4.50;99.90;;;;;;25378827;23;20084;-58
2023/10/17 07:39:36;;;;;;;3.28;1.75;;;5.50;99.90;;;;;;25337479;23;20061;-49
2023/10/17 07:49:41;;;;;;;2.60;1.50;;;6.60;99.90;;;;;;25378068;23;20033;-52
2023/10/17 07:59:50;;;;;;;2.08;1.40;;;7.90;99.90;;;;;;25336785;23;20262;-49
2023/10/17 08:09:58;;;;;;;2.80;1.47;;;9.10;99.90;;;;;;25376933;23;20041;-60
2023/10/17 08:20:00;;;;;;;3.70;1.50;;;10.00;99.90;;;;;;25376664;23;20081;-60
2023/10/17 08:30:13;;;;;;;6.18;1.80;;;10.80;99.90;;;;;;25336240;23;20279;-51
2023/10/17 08:40:59;;;;;;;4.07;1.95;;;11.50;99.90;;;;;;25376171;23;20002;-60
2023/10/17 08:50:40;;;;;;;3.75;1.80;;;11.70;99.90;;;;;;25320234;23;20570;-60
2023/10/17 09:10:51;;;;;;;6.03;1.67;;;12.40;99.90;;;;;;25334636;23;20006;-53
2023/10/17 09:20:53;;;;;;;5.00;2.10;;;12.50;99.90;;;;;;25375660;23;20006;-60
2023/10/17 09:31:02;;;;;;;4.03;1.85;;;12.30;99.60;;;;;;25334340;23;20009;-48
2023/10/17 09:41:05;;;;;;;3.17;1.97;;;12.10;98.70;;;;;;25374401;23;20002;-59
2023/10/17 09:51:13;;;;;;;3.50;2.10;;;12.10;99.90;;;;;;25335730;23;20041;-59
2023/10/17 10:01:23;;;;;;;8.52;2.15;;;12.60;99.90;;;;;;25338752;23;20057;-60
2023/10/17 10:11:53;;;;;;;6.88;2.35;;;12.80;99.90;;;;;;25381305;23;20002;-61
2023/10/17 10:22:00;;;;;;;4.03;2.70;;;13.00;99.70;;;;;;25381129;23;20006;-61
2023/10/17 10:32:05;;;;;;;4.88;2.10;;;12.90;99.90;;;;;;25380541;23;20006;-60
2023/10/17 10:42:07;;;;;;;4.03;2.65;;;13.40;99.90;;;;;;25381161;23;20002;-60
2023/10/17 10:52:09;;;;;;;5.03;2.38;;;13.20;99.90;;;;;;25339552;23;20014;-60
2023/10/17 11:02:13;;;;;;;5.43;2.28;;;13.30;99.90;;;;;;25313295;23;20018;-61
2023/10/17 11:12:21;;;;;;;17.88;3.00;;;13.70;99.90;;;;;;25338242;23;20024;-51
2023/10/17 11:22:25;;;;;;;6.88;3.67;;;13.70;99.60;;;;;;25338761;23;20009;-61
2023/10/17 11:32:27;;;;;;;5.57;3.08;;;13.40;99.90;;;;;;25337681;23;20069;-61
2023/10/17 11:42:34;;;;;;;6.00;3.03;;;13.50;98.40;;;;;;25337039;23;19998;-61
2023/10/17 11:52:40;;;;;;;4.63;3.20;;;13.90;99.90;;;;;;25373648;23;20010;-61
2023/10/17 12:02:41;;;;;;;5.10;3.40;;;14.60;98.10;;;;;;25377255;23;20010;-61
2023/10/17 12:12:43;;;;;;;4.05;3.38;;;13.70;99.80;;;;;;25336416;23;20477;-54
2023/10/17 12:22:45;;;;;;;7.80;4.05;;;13.30;99.90;;;;;;25309699;23;20152;-60
2023/10/17 12:32:47;;;;;;;8.32;4.00;;;13.60;99.90;;;;;;25335958;23;20511;-60
2023/10/17 12:42:50;;;;;;;7.18;4.22;;;13.60;99.90;;;;;;25337195;23;20010;-59
2023/10/17 12:52:53;;;;;;;5.85;3.80;;;12.90;99.90;;;;;;25334982;23;20014;-60
2023/10/17 13:02:55;;;;;;;7.82;4.18;;;12.50;99.90;;;;;;25335584;23;20009;-60
2023/10/17 13:12:58;;;;;;;6.10;4.57;;;12.00;99.90;;;;;;25335182;23;20030;-60
2023/10/17 13:23:03;;;;;;;7.57;5.00;;;11.60;99.90;;;;;;25335126;23;20073;-60
2023/10/17 13:33:06;;;;;;;9.10;5.15;;;11.70;99.90;;;;;;25336796;23;20517;-59
2023/10/17 13:43:10;;;;;;;13.68;5.80;;;11.70;99.90;;;;;;25342096;23;20375;-60
2023/10/17 13:53:16;;;;;;;13.35;5.43;;;11.30;99.90;;;;;;25341661;23;20426;-59
2023/10/17 14:03:21;;;;;;;8.60;5.07;;;11.00;99.90;;;;;;25382716;23;20072;-59
2023/10/17 14:13:25;;;;;;;10.23;5.40;;;10.70;99.90;;;;;;25341291;23;20290;-59
2023/10/17 14:23:30;;;;;;;9.75;6.55;;;10.60;99.90;;;;;;25340822;23;20005;-52
2023/10/17 14:33:33;;;;;;;7.75;5.20;;;10.40;99.90;;;;;;25340758;23;20729;-59
2023/10/17 14:43:37;;;;;;;8.40;5.60;;;10.10;99.90;;;;;;25339403;23;20341;-59
2023/10/17 14:53:42;;;;;;;8.75;5.47;;;9.70;99.90;;;;;;25339743;23;20445;-60
2023/10/17 15:03:48;;;;;;;8.98;5.55;;;9.30;99.90;;;;;;25338423;23;20488;-59
2023/10/17 15:13:50;;;;;;;8.18;5.75;;;8.80;99.90;;;;;;25379192;23;20018;-59
2023/10/17 15:23:52;;;;;;;9.07;5.03;;;8.40;99.90;;;;;;25312538;23;20009;-59
2023/10/17 15:33:55;;;;;;;6.95;4.85;;;8.10;99.90;;;;;;25338441;23;20438;-52
2023/10/17 15:43:56;;;;;;;10.50;6.10;;;7.70;99.90;;;;;;25337866;23;20002;-59
2023/10/17 15:53:58;;;;;;;9.90;6.55;;;7.30;99.90;;;;;;25336761;23;20349;-59
2023/10/17 16:04:00;;;;;;;13.35;7.47;;;6.80;99.90;;;;;;25337390;23;20309;-59
2023/10/17 16:14:03;;;;;;;13.45;8.75;;;6.20;99.90;;;;;;25337479;23;20025;-58
2023/10/17 16:24:06;;;;;;;13.90;9.77;;;5.50;99.90;;;;;;25337782;23;20385;-58
2023/10/17 16:34:11;;;;;;;16.88;9.80;;;5.00;99.90;;;;;;25336758;23;20006;-49
2023/10/17 16:44:13;;;;;;;20.15;11.02;;;4.70;99.90;;;;;;25335910;23;20010;-49
2023/10/17 16:54:14;;;;;;;13.73;9.85;;;4.40;99.90;;;;;;25336533;23;20014;-50
2023/10/17 17:04:16;;;;;;;16.45;9.43;;;4.10;99.90;;;;;;25336317;23;20010;-58
2023/10/17 17:14:19;;;;;;;19.52;11.20;;;3.90;99.90;;;;;;25342910;23;20035;-48
2023/10/17 17:24:23;;;;;;;14.80;9.57;;;3.80;99.90;;;;;;25349211;23;20010;-49
2023/10/17 17:34:24;;;;;;;19.92;10.20;;;3.80;99.90;;;;;;25348728;23;20021;-53
2023/10/17 17:44:26;;;;;;;11.35;7.63;;;3.70;99.90;;;;;;25348211;23;20002;-50
2023/10/17 17:54:30;;;;;;;18.35;9.82;;;3.50;99.90;;;;;;25347569;23;20496;-50
2023/10/17 18:04:31;;;;;;;11.38;7.32;;;3.40;99.90;;;;;;25347436;23;20009;-49
2023/10/17 18:14:35;;;;;;;13.93;7.47;;;3.30;99.90;;;;;;25347138;23;20017;-49
2023/10/17 18:24:38;;;;;;;12.20;6.90;;;3.20;99.90;;;;;;25346129;23;20520;-50
2023/10/17 18:34:41;;;;;;;12.23;7.13;;;3.00;99.90;;;;;;25320260;23;20381;-58
2023/10/17 18:44:42;;;;;;;12.80;6.97;;;3.10;99.90;;;;;;25345760;23;20006;-58
2023/10/17 18:54:44;;;;;;;12.38;6.80;;;3.30;99.90;;;;;;25345541;23;20014;-48
2023/10/17 19:04:46;;;;;;;11.50;7.35;;;3.10;99.90;;;;;;25345228;23;20480;-54
2023/10/17 19:14:48;;;;;;;15.32;9.18;;;3.10;99.90;;;;;;25344258;23;20033;-49
2023/10/17 19:24:50;;;;;;;18.17;10.77;;;3.40;99.90;;;;;;25344016;23;20006;-57
2023/10/17 19:34:52;;;;;;;19.60;12.65;;;3.30;99.90;;;;;;25343867;23;20002;-47
2023/10/17 19:44:54;;;;;;;18.52;10.23;;;3.20;99.90;;;;;;25343301;23;20505;-58
2023/10/17 19:54:56;;;;;;;12.35;6.60;;;3.10;99.90;;;;;;25342439;23;20014;-58
2023/10/17 20:04:58;;;;;;;8.73;5.68;;;3.10;99.90;;;;;;25316588;23;20021;-58
2023/10/17 20:15:01;;;;;;;17.38;10.32;;;3.10;99.90;;;;;;25342369;23;20076;-58
2023/10/17 20:25:03;;;;;;;9.75;6.80;;;3.10;99.90;;;;;;25343482;23;20010;-49
2023/10/17 20:35:08;;;;;;;9.38;5.78;;;3.00;99.90;;;;;;25340853;23;20006;-50
2023/10/17 20:45:12;;;;;;;10.38;5.90;;;3.00;99.90;;;;;;25342559;23;20009;-58
2023/10/17 20:55:14;;;;;;;13.73;7.72;;;2.90;99.90;;;;;;25340521;23;20013;-50
2023/10/17 21:05:16;;;;;;;14.23;9.60;;;3.00;99.90;;;;;;25338789;23;20010;-58
2023/10/17 21:15:22;;;;;;;11.23;7.03;;;2.80;99.90;;;;;;25338678;23;20010;-51
2023/10/17 21:25:27;;;;;;;11.98;7.57;;;2.90;99.90;;;;;;25378983;23;20328;-50
2023/10/17 21:35:29;;;;;;;18.27;11.07;;;2.70;99.90;;;;;;25338628;23;20045;-49
2023/10/17 21:45:31;;;;;;;21.42;12.73;;;2.70;99.90;;;;;;25338096;23;20006;-50
2023/10/17 21:55:33;;;;;;;22.92;14.73;;;3.10;99.90;;;;;;25340573;23;20025;-51
2023/10/17 22:05:38;;;;;;;21.75;12.18;;;3.10;99.90;;;;;;25345570;23;20002;-49
2023/10/17 22:15:42;;;;;;;18.27;10.80;;;3.10;99.90;;;;;;25344582;23;20311;-50
2023/10/17 22:25:44;;;;;;;23.58;12.75;;;3.00;99.90;;;;;;25344404;23;20311;-52
2023/10/17 22:35:45;;;;;;;28.33;16.40;;;3.20;99.90;;;;;;25344309;23;20017;-49
2023/10/17 22:45:48;;;;;;;29.55;17.52;;;3.30;99.90;;;;;;25344072;23;20016;-48
2023/10/17 22:55:51;;;;;;;29.10;17.27;;;3.30;99.90;;;;;;25317524;23;20018;-47
2023/10/17 23:05:55;;;;;;;24.48;14.88;;;3.50;99.90;;;;;;25342692;23;20466;-52
2023/10/17 23:16:01;;;;;;;21.23;12.88;;;3.40;99.90;;;;;;25342956;23;20072;-49
2023/10/17 23:26:03;;;;;;;21.80;12.55;;;3.40;99.90;;;;;;25383133;23;20017;-51
2023/10/17 23:36:05;;;;;;;22.02;12.48;;;3.40;99.90;;;;;;25342197;23;20110;-51
2023/10/17 23:46:09;;;;;;;19.88;12.48;;;3.50;99.90;;;;;;25341611;23;20447;-51
2023/10/17 23:56:13;;;;;;;15.05;7.68;;;3.50;99.90;;;;;;25340820;23;20014;-50
